Time;durP1;ratioP1;P1;durP2;ratioP2;P2;SDS_P1;SDS_P2;PMS_P1;PMS_P2;Temp;Humidity;BMP_temperature;BMP_pressure;BME280_temperature;BME280_humidity;BME280_pressure;Samples;Min_cycle;Max_cycle;Signal;HPM_P1;HPM_P2
2022/04/27 00:00:24;;;;;;;;;;;12.80;52.30;;;;;;2377207;53;20077;-74
2022/04/27 00:02:51;;;;;;;;;;;12.80;52.30;;;;;;2381062;53;20134;-74
2022/04/27 00:05:18;;;;;;;;;;;12.80;52.30;;;;;;2425043;52;20093;-75
2022/04/27 00:07:45;;;;;;;;;;;12.80;52.30;;;;;;2378008;54;20109;-74
2022/04/27 00:10:11;;;;;;;;;;;12.80;52.20;;;;;;2381222;53;20102;-75
2022/04/27 00:12:37;;;;;;;;;;;12.80;52.30;;;;;;2474370;52;20102;-74
2022/04/27 00:15:04;;;;;;;;;;;12.80;52.30;;;;;;2358949;53;20113;-74
2022/04/27 00:17:30;;;;;;;;;;;12.80;52.30;;;;;;2505138;52;20069;-74
2022/04/27 00:19:56;;;;;;;;;;;12.80;52.30;;;;;;2379855;53;20129;-76
2022/04/27 00:22:23;;;;;;;;;;;12.80;52.20;;;;;;2377434;53;20114;-76
2022/04/27 00:24:49;;;;;;;;;;;12.80;52.20;;;;;;2377376;54;20086;-75
2022/04/27 00:27:15;;;;;;;;;;;12.80;52.10;;;;;;2396757;52;20053;-73
2022/04/27 00:29:41;;;;;;;;;;;12.80;52.20;;;;;;2630654;52;20529;-74
2022/04/27 00:32:07;;;;;;;;;;;12.80;52.20;;;;;;2630756;52;20691;-73
2022/04/27 00:34:34;;;;;;;;;;;12.80;52.10;;;;;;2377596;54;20094;-73
2022/04/27 00:37:00;;;;;;;;;;;12.80;52.10;;;;;;2630293;52;20106;-74
2022/04/27 00:39:26;;;;;;;;;;;12.80;52.20;;;;;;2381590;53;20133;-76
2022/04/27 00:41:59;;;;;;;;;;;12.80;52.20;;;;;;2426048;52;20073;-74
2022/04/27 00:44:32;;;;;;;;;;;12.70;52.20;;;;;;2377135;53;20070;-76
2022/04/27 00:46:58;;;;;;;;;;;12.80;52.40;;;;;;2382822;53;20531;-76
2022/04/27 00:49:26;;;;;;;;;;;12.80;52.40;;;;;;2419520;52;20121;-72
2022/04/27 00:51:52;;;;;;;;;;;12.80;52.40;;;;;;2631344;52;20114;-76
2022/04/27 00:54:22;;;;;;;;;;;12.80;52.50;;;;;;2541067;52;20077;-75
2022/04/27 00:56:48;;;;;;;;;;;12.80;52.50;;;;;;2378975;52;20140;-73
2022/04/27 00:59:14;;;;;;;;;;;12.80;52.50;;;;;;2378359;53;20053;-74
2022/04/27 01:01:41;;;;;;;;;;;12.80;52.50;;;;;;2376821;53;20085;-75
2022/04/27 01:04:07;;;;;;;;;;;12.80;52.50;;;;;;2380908;54;20062;-75
2022/04/27 01:06:36;;;;;;;;;;;12.80;52.50;;;;;;2383544;53;20121;-75
2022/04/27 01:09:03;;;;;;;;;;;12.80;52.40;;;;;;2457544;52;20145;-74
2022/04/27 01:11:32;;;;;;;;;;;12.70;52.30;;;;;;2377178;53;20070;-76
2022/04/27 01:13:58;;;;;;;;;;;12.70;52.30;;;;;;2585952;52;20110;-74
2022/04/27 01:16:25;;;;;;;;;;;12.70;52.30;;;;;;2377379;53;20777;-74
2022/04/27 01:18:51;;;;;;;;;;;12.70;52.30;;;;;;2380280;53;20370;-75
2022/04/27 01:21:18;;;;;;;;;;;12.70;52.30;;;;;;2380844;53;20121;-73
2022/04/27 01:23:47;;;;;;;;;;;12.60;52.20;;;;;;2377664;53;20082;-74
2022/04/27 01:26:14;;;;;;;;;;;12.60;52.20;;;;;;2503336;52;20122;-75
2022/04/27 01:28:41;;;;;;;;;;;12.60;52.20;;;;;;2631023;52;20122;-75
2022/04/27 01:31:08;;;;;;;;;;;12.60;52.20;;;;;;2377876;54;20069;-75
2022/04/27 01:33:35;;;;;;;;;;;12.60;52.20;;;;;;2377392;54;20110;-75
2022/04/27 01:36:04;;;;;;;;;;;12.50;52.10;;;;;;2377861;54;20073;-74
2022/04/27 01:38:34;;;;;;;;;;;12.50;52.10;;;;;;2377973;54;20097;-74
2022/04/27 01:41:02;;;;;;;;;;;12.40;52.10;;;;;;2377910;54;20118;-73
2022/04/27 01:43:29;;;;;;;;;;;12.40;52.10;;;;;;2378458;54;20074;-73
2022/04/27 01:45:55;;;;;;;;;;;12.40;52.10;;;;;;2500682;52;20073;-75
2022/04/27 01:48:21;;;;;;;;;;;12.30;52.10;;;;;;2384604;53;20432;-73
2022/04/27 01:50:48;;;;;;;;;;;12.30;52.10;;;;;;2491741;52;20231;-74
2022/04/27 01:55:59;;;;;;;;;;;12.20;52.10;;;;;;2379463;53;20050;-75
2022/04/27 01:58:25;;;;;;;;;;;12.20;52.20;;;;;;2631290;52;20046;-73
2022/04/27 02:00:51;;;;;;;;;;;12.20;52.20;;;;;;2377695;52;20385;-73
2022/04/27 02:03:21;;;;;;;;;;;12.10;52.20;;;;;;2377756;54;20058;-74
2022/04/27 02:05:48;;;;;;;;;;;12.10;52.20;;;;;;2377635;54;20105;-73
2022/04/27 02:08:15;;;;;;;;;;;12.10;52.20;;;;;;2410404;52;20341;-76
2022/04/27 02:10:41;;;;;;;;;;;12.00;52.20;;;;;;2376724;53;20066;-73
2022/04/27 02:13:08;;;;;;;;;;;12.00;52.20;;;;;;2629809;52;20073;-73
2022/04/27 02:15:34;;;;;;;;;;;12.00;52.30;;;;;;2380437;53;20334;-75
2022/04/27 02:18:01;;;;;;;;;;;11.90;52.30;;;;;;2383357;53;20138;-76
2022/04/27 02:20:27;;;;;;;;;;;11.90;52.30;;;;;;2448719;52;20093;-74
2022/04/27 02:22:54;;;;;;;;;;;11.90;52.40;;;;;;2481028;52;20121;-74
2022/04/27 02:25:20;;;;;;;;;;;11.90;52.50;;;;;;2377588;53;20106;-74
2022/04/27 02:27:47;;;;;;;;;;;11.90;52.50;;;;;;2377390;53;20585;-76
2022/04/27 02:30:13;;;;;;;;;;;11.90;52.60;;;;;;2377156;53;20362;-75
2022/04/27 02:32:40;;;;;;;;;;;11.90;52.70;;;;;;2631267;52;20302;-74
2022/04/27 02:35:06;;;;;;;;;;;11.90;52.70;;;;;;2377542;53;20069;-73
2022/04/27 02:37:33;;;;;;;;;;;11.90;52.70;;;;;;2377566;53;20614;-74
2022/04/27 02:39:59;;;;;;;;;;;11.90;52.80;;;;;;2500656;52;20066;-75
2022/04/27 02:42:26;;;;;;;;;;;11.90;52.80;;;;;;2376421;53;20460;-73
2022/04/27 02:44:52;;;;;;;;;;;11.90;52.80;;;;;;2386089;52;20658;-76
2022/04/27 02:47:19;;;;;;;;;;;12.00;52.90;;;;;;2377175;53;20126;-74
2022/04/27 02:52:29;;;;;;;;;;;11.90;52.90;;;;;;2630240;52;20695;-75
2022/04/27 02:54:55;;;;;;;;;;;12.00;53.00;;;;;;2377317;54;20483;-75
2022/04/27 02:57:24;;;;;;;;;;;12.00;53.00;;;;;;2376742;53;20117;-73
2022/04/27 02:59:50;;;;;;;;;;;12.00;53.00;;;;;;2596211;52;20079;-74
2022/04/27 03:02:18;;;;;;;;;;;12.00;53.10;;;;;;2464784;52;20069;-75
2022/04/27 03:04:44;;;;;;;;;;;12.10;53.70;;;;;;2479500;52;20148;-75
2022/04/27 03:07:10;;;;;;;;;;;12.10;53.10;;;;;;2378563;53;20065;-75
2022/04/27 03:09:39;;;;;;;;;;;12.10;53.20;;;;;;2377452;53;20066;-75
2022/04/27 03:12:06;;;;;;;;;;;12.10;53.30;;;;;;2445138;52;20701;-76
2022/04/27 03:14:34;;;;;;;;;;;12.10;53.30;;;;;;2519486;52;20069;-73
2022/04/27 03:17:01;;;;;;;;;;;12.10;53.40;;;;;;2369757;53;20342;-76
2022/04/27 03:19:28;;;;;;;;;;;12.10;53.40;;;;;;2630986;52;20105;-74
2022/04/27 03:21:55;;;;;;;;;;;12.20;53.50;;;;;;2357756;53;20049;-74
2022/04/27 03:24:23;;;;;;;;;;;12.20;53.50;;;;;;2377257;54;20081;-73
2022/04/27 03:26:49;;;;;;;;;;;12.30;53.60;;;;;;2602476;52;20161;-73
2022/04/27 03:29:16;;;;;;;;;;;12.30;53.60;;;;;;2377177;54;20133;-75
2022/04/27 03:31:42;;;;;;;;;;;12.30;53.60;;;;;;2426396;52;20755;-74
2022/04/27 03:34:08;;;;;;;;;;;12.30;53.60;;;;;;2376974;54;20058;-74
2022/04/27 03:36:35;;;;;;;;;;;12.30;53.50;;;;;;2377412;54;20073;-73
2022/04/27 03:39:01;;;;;;;;;;;12.30;53.50;;;;;;2427584;52;20133;-75
2022/04/27 03:41:28;;;;;;;;;;;12.40;53.60;;;;;;2377565;54;20058;-75
2022/04/27 03:43:55;;;;;;;;;;;12.40;53.60;;;;;;2377609;53;20169;-75
2022/04/27 03:46:21;;;;;;;;;;;12.40;53.50;;;;;;2380326;53;20061;-74
2022/04/27 03:48:55;;;;;;;;;;;12.40;53.50;;;;;;2412923;52;20093;-74
2022/04/27 03:51:25;;;;;;;;;;;12.40;53.50;;;;;;2410976;52;20391;-74
2022/04/27 03:53:52;;;;;;;;;;;12.50;53.60;;;;;;2374402;53;20126;-74
2022/04/27 03:56:18;;;;;;;;;;;12.50;53.60;;;;;;2376733;54;20113;-73
2022/04/27 03:58:45;;;;;;;;;;;12.50;53.60;;;;;;2412178;52;20113;-74
2022/04/27 04:01:13;;;;;;;;;;;12.50;53.60;;;;;;2377498;54;20126;-74
2022/04/27 04:03:39;;;;;;;;;;;12.50;53.60;;;;;;2377335;54;20073;-74
2022/04/27 04:06:06;;;;;;;;;;;12.50;53.60;;;;;;2567989;52;20082;-74
2022/04/27 04:08:32;;;;;;;;;;;12.50;53.60;;;;;;2579666;52;20561;-73
2022/04/27 04:11:00;;;;;;;;;;;12.50;53.60;;;;;;2378099;53;20582;-74
2022/04/27 04:13:26;;;;;;;;;;;12.50;53.60;;;;;;2376568;53;20425;-75
2022/04/27 04:15:53;;;;;;;;;;;12.50;53.60;;;;;;2377113;54;20066;-75
2022/04/27 04:18:19;;;;;;;;;;;12.50;53.60;;;;;;2396938;52;20598;-74
2022/04/27 04:20:46;;;;;;;;;;;12.50;53.70;;;;;;2377226;54;20368;-75
2022/04/27 04:23:13;;;;;;;;;;;12.50;53.70;;;;;;2377239;54;20109;-75
2022/04/27 04:28:29;;;;;;;;;;;12.60;53.80;;;;;;2377760;54;20066;-73
2022/04/27 04:30:57;;;;;;;;;;;12.60;53.80;;;;;;2435121;52;20532;-74
2022/04/27 04:33:24;;;;;;;;;;;12.60;53.80;;;;;;2377858;54;20081;-75
2022/04/27 04:35:51;;;;;;;;;;;12.60;53.80;;;;;;2449330;52;20062;-74
2022/04/27 04:38:19;;;;;;;;;;;12.60;53.80;;;;;;2609502;52;20105;-73
2022/04/27 04:40:46;;;;;;;;;;;12.60;53.80;;;;;;2509448;52;20065;-74
2022/04/27 04:43:12;;;;;;;;;;;12.60;53.80;;;;;;2377341;53;20065;-75
2022/04/27 04:45:39;;;;;;;;;;;12.60;53.90;;;;;;2377691;53;20081;-74
2022/04/27 04:48:05;;;;;;;;;;;12.60;53.90;;;;;;2482921;52;20081;-74
2022/04/27 04:50:32;;;;;;;;;;;12.70;54.00;;;;;;2443750;52;20070;-75
2022/04/27 04:52:58;;;;;;;;;;;12.70;54.00;;;;;;2377280;54;20138;-74
2022/04/27 04:55:25;;;;;;;;;;;12.70;54.00;;;;;;2377426;53;20070;-74
2022/04/27 04:57:51;;;;;;;;;;;12.70;54.00;;;;;;2503285;52;20125;-74
2022/04/27 05:00:18;;;;;;;;;;;12.70;54.00;;;;;;2456713;52;20160;-74
2022/04/27 05:02:44;;;;;;;;;;;12.80;54.10;;;;;;2377186;53;20121;-75
2022/04/27 05:05:10;;;;;;;;;;;12.80;54.20;;;;;;2376825;53;20073;-74
2022/04/27 05:07:36;;;;;;;;;;;12.80;54.20;;;;;;2377154;54;20339;-75
2022/04/27 05:10:04;;;;;;;;;;;12.80;54.20;;;;;;2377634;54;20105;-75
2022/04/27 05:12:30;;;;;;;;;;;12.90;54.20;;;;;;2442418;52;20145;-74
2022/04/27 05:14:57;;;;;;;;;;;12.90;54.20;;;;;;2377673;54;20066;-75
2022/04/27 05:17:24;;;;;;;;;;;12.90;54.20;;;;;;2631103;52;20050;-75
2022/04/27 05:19:52;;;;;;;;;;;12.90;54.10;;;;;;2377311;53;20421;-74
2022/04/27 05:22:18;;;;;;;;;;;12.90;54.10;;;;;;2379010;53;20169;-73
2022/04/27 05:24:44;;;;;;;;;;;12.90;54.10;;;;;;2377484;53;20385;-74
2022/04/27 05:27:10;;;;;;;;;;;12.90;54.00;;;;;;2377827;54;20082;-73
2022/04/27 05:32:22;;;;;;;;;;;13.00;54.10;;;;;;2383085;52;20113;-75
2022/04/27 05:34:49;;;;;;;;;;;13.00;54.10;;;;;;2377085;53;20397;-75
2022/04/27 05:37:15;;;;;;;;;;;13.00;54.10;;;;;;2420111;52;20094;-73
2022/04/27 05:39:41;;;;;;;;;;;13.00;54.00;;;;;;2376967;53;20069;-75
2022/04/27 05:42:07;;;;;;;;;;;13.00;54.00;;;;;;2377380;54;20066;-74
2022/04/27 05:44:33;;;;;;;;;;;13.00;54.00;;;;;;2378459;53;20133;-75
2022/04/27 05:47:00;;;;;;;;;;;13.00;53.90;;;;;;2376333;53;20125;-75
2022/04/27 05:49:26;;;;;;;;;;;13.00;53.80;;;;;;2456501;52;20066;-75
2022/04/27 05:51:53;;;;;;;;;;;13.00;53.70;;;;;;2377220;54;20069;-75
2022/04/27 05:54:20;;;;;;;;;;;13.00;53.80;;;;;;2375979;53;20086;-74
2022/04/27 05:56:47;;;;;;;;;;;13.00;54.20;;;;;;2477339;52;20353;-74
2022/04/27 05:59:14;;;;;;;;;;;13.00;54.00;;;;;;2357381;53;20130;-74
2022/04/27 06:01:41;;;;;;;;;;;13.00;54.00;;;;;;2380780;53;20389;-75
2022/04/27 06:04:07;;;;;;;;;;;13.10;54.10;;;;;;2381526;53;20101;-75
2022/04/27 06:06:35;;;;;;;;;;;13.10;54.10;;;;;;2372309;53;20079;-75
2022/04/27 06:09:01;;;;;;;;;;;13.10;54.10;;;;;;2359766;53;20114;-75
2022/04/27 06:11:28;;;;;;;;;;;13.10;54.10;;;;;;2376900;53;20089;-74
2022/04/27 06:13:54;;;;;;;;;;;13.10;54.10;;;;;;2377032;53;20395;-74
2022/04/27 06:16:23;;;;;;;;;;;13.10;54.10;;;;;;2378011;54;20078;-74
2022/04/27 06:18:50;;;;;;;;;;;13.20;54.20;;;;;;2376733;54;20069;-73
2022/04/27 06:21:17;;;;;;;;;;;13.20;54.20;;;;;;2383649;53;20373;-75
2022/04/27 06:23:43;;;;;;;;;;;13.20;54.20;;;;;;2374365;53;20136;-74
2022/04/27 06:26:10;;;;;;;;;;;13.30;54.90;;;;;;2376109;54;20095;-74
2022/04/27 06:28:36;;;;;;;;;;;13.30;54.40;;;;;;2377417;53;20086;-75
2022/04/27 06:31:02;;;;;;;;;;;13.30;54.50;;;;;;2376555;54;20428;-74
2022/04/27 06:33:28;;;;;;;;;;;13.40;54.50;;;;;;2377522;54;20081;-74
2022/04/27 06:35:56;;;;;;;;;;;13.40;54.50;;;;;;2412029;52;20081;-75
2022/04/27 06:38:23;;;;;;;;;;;13.40;54.50;;;;;;2380265;52;20367;-75
2022/04/27 06:41:02;;;;;;;;;;;13.50;54.60;;;;;;2377095;54;20085;-74
2022/04/27 06:43:28;;;;;;;;;;;13.50;54.60;;;;;;2377862;54;20069;-75
2022/04/27 06:45:55;;;;;;;;;;;13.60;54.60;;;;;;2377833;54;20157;-73
2022/04/27 06:48:21;;;;;;;;;;;13.60;54.50;;;;;;2495109;52;20453;-74
2022/04/27 06:50:51;;;;;;;;;;;13.60;54.30;;;;;;2383085;53;20706;-75
2022/04/27 06:53:17;;;;;;;;;;;13.70;54.30;;;;;;2489844;52;20176;-75
2022/04/27 06:55:43;;;;;;;;;;;13.80;54.50;;;;;;2442194;52;20074;-75
2022/04/27 06:58:10;;;;;;;;;;;13.80;54.60;;;;;;2377303;53;20409;-74
2022/04/27 07:00:36;;;;;;;;;;;13.80;54.60;;;;;;2377617;54;20050;-75
2022/04/27 07:03:04;;;;;;;;;;;13.90;54.90;;;;;;2377358;54;20359;-74
2022/04/27 07:05:32;;;;;;;;;;;14.00;55.20;;;;;;2378236;53;20434;-74
2022/04/27 07:07:59;;;;;;;;;;;14.10;55.80;;;;;;2376018;54;20066;-74
2022/04/27 07:10:26;;;;;;;;;;;14.40;56.60;;;;;;2377642;53;20112;-74
2022/04/27 07:12:52;;;;;;;;;;;14.70;57.10;;;;;;2488035;52;20161;-74
2022/04/27 07:15:18;;;;;;;;;;;15.10;57.60;;;;;;2396693;52;20125;-74
2022/04/27 07:17:45;;;;;;;;;;;15.40;57.70;;;;;;2377917;54;20069;-74
2022/04/27 07:20:11;;;;;;;;;;;15.80;57.60;;;;;;2380606;54;20149;-74
2022/04/27 07:22:38;;;;;;;;;;;16.10;57.70;;;;;;2373962;53;20074;-74
2022/04/27 07:25:05;;;;;;;;;;;16.50;57.80;;;;;;2366009;53;20090;-75
2022/04/27 07:27:31;;;;;;;;;;;16.80;57.70;;;;;;2602664;52;20639;-75
2022/04/27 07:29:59;;;;;;;;;;;17.10;57.50;;;;;;2379714;53;20089;-74
2022/04/27 07:32:25;;;;;;;;;;;17.40;57.20;;;;;;2413775;52;20116;-74
2022/04/27 07:34:52;;;;;;;;;;;17.70;57.00;;;;;;2549683;52;20110;-74
2022/04/27 07:37:18;;;;;;;;;;;17.90;56.90;;;;;;2381744;52;20373;-75
2022/04/27 07:39:45;;;;;;;;;;;18.20;57.00;;;;;;2450515;52;20093;-74
2022/04/27 07:42:11;;;;;;;;;;;18.50;56.60;;;;;;2377440;53;20556;-75
2022/04/27 07:44:37;;;;;;;;;;;18.60;55.70;;;;;;2478058;52;20381;-73
2022/04/27 07:47:05;;;;;;;;;;;18.60;55.00;;;;;;2377674;53;20875;-73
2022/04/27 07:49:32;;;;;;;;;;;18.60;54.30;;;;;;2465361;52;20077;-74
2022/04/27 07:51:59;;;;;;;;;;;18.50;53.60;;;;;;2376632;54;20061;-74
2022/04/27 07:54:25;;;;;;;;;;;18.20;53.00;;;;;;2381002;53;20077;-74
2022/04/27 07:56:51;;;;;;;;;;;18.00;52.70;;;;;;2410779;52;20117;-75
2022/04/27 07:59:18;;;;;;;;;;;17.90;52.70;;;;;;2385198;52;20670;-73
2022/04/27 08:01:44;;;;;;;;;;;17.70;52.60;;;;;;2377001;54;20117;-74
2022/04/27 08:04:10;;;;;;;;;;;17.50;52.70;;;;;;2444148;52;20090;-74
2022/04/27 08:06:36;;;;;;;;;;;17.40;52.80;;;;;;2491475;52;20089;-74
2022/04/27 08:09:03;;;;;;;;;;;17.30;52.90;;;;;;2380648;53;20109;-73
2022/04/27 08:11:29;;;;;;;;;;;17.20;52.90;;;;;;2377191;53;20117;-74
2022/04/27 08:13:55;;;;;;;;;;;17.10;52.80;;;;;;2381446;53;20133;-74
2022/04/27 08:16:22;;;;;;;;;;;17.00;52.70;;;;;;2377660;53;20101;-74
2022/04/27 08:18:50;;;;;;;;;;;16.90;52.60;;;;;;2377154;54;20303;-73
2022/04/27 08:21:18;;;;;;;;;;;16.80;52.60;;;;;;2377356;54;20181;-75
2022/04/27 08:23:44;;;;;;;;;;;16.70;52.60;;;;;;2378670;54;20129;-74
2022/04/27 08:26:11;;;;;;;;;;;16.70;52.70;;;;;;2591509;52;20102;-74
2022/04/27 08:28:38;;;;;;;;;;;16.60;52.80;;;;;;2376893;53;20085;-75
2022/04/27 08:31:04;;;;;;;;;;;16.60;52.90;;;;;;2379025;53;20070;-73
2022/04/27 08:33:31;;;;;;;;;;;16.60;53.00;;;;;;2557763;52;20153;-73
2022/04/27 08:35:57;;;;;;;;;;;16.60;53.10;;;;;;2378860;53;20074;-74
2022/04/27 08:38:35;;;;;;;;;;;16.60;53.20;;;;;;2375533;53;20587;-74
2022/04/27 08:41:02;;;;;;;;;;;16.60;53.20;;;;;;2377389;53;20063;-74
2022/04/27 08:43:28;;;;;;;;;;;16.60;53.20;;;;;;2376632;54;20341;-74
2022/04/27 08:45:54;;;;;;;;;;;16.70;53.20;;;;;;2377269;54;20122;-75
2022/04/27 08:48:21;;;;;;;;;;;16.60;53.10;;;;;;2377725;53;20669;-74
2022/04/27 08:50:48;;;;;;;;;;;16.70;53.20;;;;;;2435620;52;20129;-75
2022/04/27 08:53:14;;;;;;;;;;;16.70;53.30;;;;;;2380960;53;20114;-73
2022/04/27 08:55:41;;;;;;;;;;;16.80;53.50;;;;;;2377541;53;20046;-74
2022/04/27 08:58:10;;;;;;;;;;;16.80;53.60;;;;;;2613084;52;20121;-73
2022/04/27 09:00:53;;;;;;;;;;;16.90;53.80;;;;;;2379613;53;20066;-74
2022/04/27 09:03:32;;;;;;;;;;;16.90;53.80;;;;;;2376676;53;20370;-74
2022/04/27 09:06:00;;;;;;;;;;;17.00;53.70;;;;;;2434145;52;20093;-73
2022/04/27 09:08:36;;;;;;;;;;;17.10;53.60;;;;;;2587509;52;20084;-73
2022/04/27 09:14:33;;;;;;;;;;;17.10;53.30;;;;;;2595447;52;20125;-74
2022/04/27 09:22:43;;;;;;;;;;;17.00;52.70;;;;;;2363683;53;20357;-74
2022/04/27 09:25:09;;;;;;;;;;;17.00;53.00;;;;;;2377225;54;20132;-74
2022/04/27 09:27:35;;;;;;;;;;;17.00;53.10;;;;;;2377340;53;20101;-74
2022/04/27 09:30:10;;;;;;;;;;;17.10;53.30;;;;;;2376651;54;20054;-72
2022/04/27 09:32:36;;;;;;;;;;;17.20;53.40;;;;;;2377228;53;20082;-74
2022/04/27 09:35:03;;;;;;;;;;;17.20;53.50;;;;;;2630395;52;20109;-73
2022/04/27 09:37:42;;;;;;;;;;;17.40;53.90;;;;;;2377592;54;20065;-74
2022/04/27 09:40:12;;;;;;;;;;;17.50;54.00;;;;;;2381004;53;20073;-74
2022/04/27 09:42:41;;;;;;;;;;;17.60;53.80;;;;;;2411415;52;20101;-75
2022/04/27 09:45:20;;;;;;;;;;;17.70;53.60;;;;;;2382836;53;20073;-73
2022/04/27 09:47:53;;;;;;;;;;;17.70;53.40;;;;;;2371523;53;20365;-74
2022/04/27 09:50:19;;;;;;;;;;;17.80;53.30;;;;;;2377022;53;20085;-72
2022/04/27 09:52:46;;;;;;;;;;;17.80;53.10;;;;;;2377251;53;20096;-76
2022/04/27 09:55:13;;;;;;;;;;;17.80;53.10;;;;;;2398311;52;20113;-74
2022/04/27 09:57:41;;;;;;;;;;;17.80;52.90;;;;;;2376756;53;20049;-74
2022/04/27 10:00:07;;;;;;;;;;;17.90;53.00;;;;;;2376805;53;20090;-74
2022/04/27 10:02:34;;;;;;;;;;;17.90;53.10;;;;;;2377563;53;20114;-73
2022/04/27 10:05:01;;;;;;;;;;;17.90;53.30;;;;;;2377501;53;20337;-74
2022/04/27 10:07:30;;;;;;;;;;;18.10;53.50;;;;;;2356739;53;20155;-74
2022/04/27 10:09:56;;;;;;;;;;;18.20;53.60;;;;;;2377844;54;20090;-76
2022/04/27 10:12:22;;;;;;;;;;;18.30;53.60;;;;;;2377424;54;20073;-74
2022/04/27 10:14:49;;;;;;;;;;;18.30;53.30;;;;;;2403378;52;20106;-74
2022/04/27 10:17:15;;;;;;;;;;;18.40;53.30;;;;;;2377182;53;20189;-74
2022/04/27 10:19:47;;;;;;;;;;;18.50;53.40;;;;;;2416936;52;20066;-74
2022/04/27 10:22:33;;;;;;;;;;;18.60;53.30;;;;;;2425000;52;20150;-74
2022/04/27 10:25:06;;;;;;;;;;;18.70;53.40;;;;;;2456016;52;20117;-74
2022/04/27 10:27:36;;;;;;;;;;;18.80;53.10;;;;;;2377271;54;20474;-74
2022/04/27 10:30:12;;;;;;;;;;;18.80;52.80;;;;;;2377221;54;20115;-74
2022/04/27 10:32:39;;;;;;;;;;;18.80;52.50;;;;;;2382350;52;20248;-73
2022/04/27 10:35:39;;;;;;;;;;;18.80;52.30;;;;;;2377100;53;20074;-74
2022/04/27 10:38:05;;;;;;;;;;;18.80;52.40;;;;;;2380478;53;20153;-73
2022/04/27 10:40:32;;;;;;;;;;;18.90;52.40;;;;;;2377612;53;20074;-74
2022/04/27 10:43:10;;;;;;;;;;;18.90;52.30;;;;;;2377901;54;20146;-74
2022/04/27 10:45:42;;;;;;;;;;;18.90;52.20;;;;;;2381151;54;20093;-73
2022/04/27 10:48:42;;;;;;;;;;;18.90;52.30;;;;;;2379243;53;20050;-74
2022/04/27 10:51:09;;;;;;;;;;;19.00;52.30;;;;;;2514294;53;20069;-74
2022/04/27 10:53:38;;;;;;;;;;;19.00;52.30;;;;;;2361281;53;20121;-74
2022/04/27 10:56:22;;;;;;;;;;;19.10;52.20;;;;;;2630527;52;20286;-74
2022/04/27 10:58:48;;;;;;;;;;;19.20;52.40;;;;;;2377425;54;20146;-73
2022/04/27 11:01:18;;;;;;;;;;;19.20;52.50;;;;;;2377420;54;20078;-73
2022/04/27 11:03:55;;;;;;;;;;;19.30;52.50;;;;;;2630858;52;20173;-75
2022/04/27 11:06:21;;;;;;;;;;;19.40;52.50;;;;;;2377590;53;20066;-74
2022/04/27 11:08:55;;;;;;;;;;;19.50;52.00;;;;;;2377460;54;20054;-74
2022/04/27 11:11:26;;;;;;;;;;;19.50;51.80;;;;;;2377233;53;20122;-74
2022/04/27 11:14:00;;;;;;;;;;;19.50;52.30;;;;;;2376971;54;20065;-74
2022/04/27 11:16:29;;;;;;;;;;;19.60;51.60;;;;;;2377320;53;20065;-74
2022/04/27 11:18:58;;;;;;;;;;;19.60;51.60;;;;;;2377494;54;20330;-75
2022/04/27 11:21:25;;;;;;;;;;;19.60;51.50;;;;;;2376908;54;20392;-74
2022/04/27 11:23:52;;;;;;;;;;;19.60;51.50;;;;;;2525300;52;20077;-73
2022/04/27 11:26:18;;;;;;;;;;;19.70;52.40;;;;;;2377293;54;20314;-73
2022/04/27 11:28:45;;;;;;;;;;;19.80;51.70;;;;;;2377361;54;20086;-75
2022/04/27 11:31:12;;;;;;;;;;;19.90;51.60;;;;;;2376728;53;20078;-74
2022/04/27 11:33:41;;;;;;;;;;;19.90;51.60;;;;;;2380801;53;20069;-75
2022/04/27 11:36:19;;;;;;;;;;;20.00;51.40;;;;;;2376753;53;20177;-74
2022/04/27 11:38:45;;;;;;;;;;;20.10;51.30;;;;;;2380824;53;20463;-74
2022/04/27 11:41:19;;;;;;;;;;;20.10;51.10;;;;;;2381000;53;20077;-74
2022/04/27 11:43:49;;;;;;;;;;;20.20;50.90;;;;;;2439517;52;20142;-74
2022/04/27 11:46:15;;;;;;;;;;;20.20;50.80;;;;;;2377076;53;20074;-75
2022/04/27 11:48:48;;;;;;;;;;;20.30;50.80;;;;;;2377262;54;20312;-74
2022/04/27 11:51:14;;;;;;;;;;;20.30;50.40;;;;;;2376913;53;20392;-75
2022/04/27 11:53:46;;;;;;;;;;;20.30;50.20;;;;;;2377231;53;20876;-75
2022/04/27 11:56:13;;;;;;;;;;;20.30;50.30;;;;;;2521662;53;20086;-73
2022/04/27 11:58:40;;;;;;;;;;;20.40;50.30;;;;;;2491292;52;20085;-74
2022/04/27 12:01:07;;;;;;;;;;;20.40;50.40;;;;;;2376854;53;20070;-73
2022/04/27 12:03:39;;;;;;;;;;;20.50;50.50;;;;;;2453270;52;20088;-74
2022/04/27 12:06:05;;;;;;;;;;;20.60;50.50;;;;;;2375547;53;20113;-76
2022/04/27 12:08:33;;;;;;;;;;;20.60;50.30;;;;;;2384740;52;20605;-74
2022/04/27 12:11:01;;;;;;;;;;;20.70;50.30;;;;;;2630039;52;20116;-74
2022/04/27 12:13:27;;;;;;;;;;;20.70;50.70;;;;;;2380459;53;20303;-74
2022/04/27 12:15:54;;;;;;;;;;;20.80;50.10;;;;;;2473479;52;20070;-74
2022/04/27 12:18:20;;;;;;;;;;;20.80;50.20;;;;;;2421911;52;20177;-74
2022/04/27 12:20:48;;;;;;;;;;;20.90;50.10;;;;;;2377105;54;20575;-73
2022/04/27 12:23:18;;;;;;;;;;;20.90;49.70;;;;;;2361269;53;20185;-73
2022/04/27 12:25:45;;;;;;;;;;;21.00;49.70;;;;;;2357817;53;20110;-73
2022/04/27 12:28:12;;;;;;;;;;;21.00;49.70;;;;;;2380612;53;20046;-73
2022/04/27 12:30:43;;;;;;;;;;;21.10;50.00;;;;;;2375159;53;20081;-74
2022/04/27 12:33:12;;;;;;;;;;;21.20;50.00;;;;;;2377402;53;20104;-74
2022/04/27 12:38:29;;;;;;;;;;;21.40;49.90;;;;;;2377237;54;20074;-75
2022/04/27 12:40:56;;;;;;;;;;;21.60;50.30;;;;;;2377058;53;20102;-75
2022/04/27 12:43:23;;;;;;;;;;;21.70;50.00;;;;;;2478422;52;20137;-74
2022/04/27 12:46:08;;;;;;;;;;;21.90;50.10;;;;;;2379773;53;20165;-75
2022/04/27 12:48:35;;;;;;;;;;;22.00;50.20;;;;;;2519838;52;20385;-74
2022/04/27 12:51:05;;;;;;;;;;;22.20;50.50;;;;;;2375295;53;20402;-75
2022/04/27 12:53:31;;;;;;;;;;;22.30;50.20;;;;;;2377025;54;20070;-74
2022/04/27 12:56:01;;;;;;;;;;;22.50;50.40;;;;;;2607914;52;20189;-74
2022/04/27 12:58:28;;;;;;;;;;;22.60;50.00;;;;;;2377092;53;20421;-74
2022/04/27 13:00:54;;;;;;;;;;;22.70;49.70;;;;;;2377164;54;20070;-75
2022/04/27 13:03:20;;;;;;;;;;;22.80;50.60;;;;;;2433849;52;20383;-76
2022/04/27 13:05:50;;;;;;;;;;;22.90;49.50;;;;;;2383200;52;20287;-74
2022/04/27 13:08:17;;;;;;;;;;;22.90;49.30;;;;;;2377200;54;20054;-74
2022/04/27 13:13:29;;;;;;;;;;;23.00;48.50;;;;;;2357415;53;20057;-74
2022/04/27 13:15:55;;;;;;;;;;;22.90;48.10;;;;;;2377237;53;20361;-74
2022/04/27 13:18:21;;;;;;;;;;;22.90;47.70;;;;;;2434730;52;20569;-75
2022/04/27 13:20:50;;;;;;;;;;;22.80;47.50;;;;;;2375851;53;20152;-74
2022/04/27 13:23:17;;;;;;;;;;;22.70;47.20;;;;;;2469357;52;20125;-73
2022/04/27 13:25:44;;;;;;;;;;;22.60;47.10;;;;;;2377489;54;20050;-74
2022/04/27 13:28:12;;;;;;;;;;;22.50;47.10;;;;;;2376843;54;20389;-76
2022/04/27 13:30:40;;;;;;;;;;;22.50;47.10;;;;;;2377684;54;20061;-74
2022/04/27 13:33:06;;;;;;;;;;;22.40;47.20;;;;;;2376821;53;20069;-75
2022/04/27 13:35:33;;;;;;;;;;;22.40;47.20;;;;;;2422099;52;20081;-75
2022/04/27 13:37:59;;;;;;;;;;;22.30;47.10;;;;;;2376684;53;20129;-75
2022/04/27 13:40:25;;;;;;;;;;;22.30;47.40;;;;;;2380818;52;20082;-76
2022/04/27 13:42:51;;;;;;;;;;;22.30;47.80;;;;;;2413979;52;20077;-75
2022/04/27 13:45:17;;;;;;;;;;;22.30;47.80;;;;;;2465983;52;20365;-74
2022/04/27 13:47:44;;;;;;;;;;;22.40;47.90;;;;;;2375396;53;20413;-74
2022/04/27 13:50:10;;;;;;;;;;;22.50;48.10;;;;;;2376322;54;20065;-74
2022/04/27 13:52:52;;;;;;;;;;;22.60;47.70;;;;;;2385784;52;20131;-74
2022/04/27 13:55:18;;;;;;;;;;;22.70;47.70;;;;;;2631201;52;20102;-74
2022/04/27 13:57:45;;;;;;;;;;;22.70;47.30;;;;;;2377684;54;20082;-75
2022/04/27 14:00:11;;;;;;;;;;;22.80;47.30;;;;;;2376633;54;20078;-74
2022/04/27 14:02:38;;;;;;;;;;;22.80;47.10;;;;;;2482639;52;20133;-74
2022/04/27 14:05:05;;;;;;;;;;;22.80;47.00;;;;;;2377207;53;20140;-74
2022/04/27 14:07:35;;;;;;;;;;;22.90;46.90;;;;;;2377752;53;20053;-75
2022/04/27 14:10:01;;;;;;;;;;;22.80;46.10;;;;;;2376866;53;20093;-73
2022/04/27 14:15:13;;;;;;;;;;;22.70;46.20;;;;;;2545371;53;20391;-73
2022/04/27 14:20:27;;;;;;;;;;;22.50;45.90;;;;;;2369954;53;20118;-74
2022/04/27 14:22:53;;;;;;;;;;;22.50;45.60;;;;;;2405563;52;20367;-76
2022/04/27 14:25:20;;;;;;;;;;;22.50;45.60;;;;;;2377427;54;20057;-75
2022/04/27 14:27:47;;;;;;;;;;;22.50;45.50;;;;;;2471597;52;20156;-76
2022/04/27 14:30:14;;;;;;;;;;;22.40;45.50;;;;;;2376138;54;20089;-75
2022/04/27 14:32:40;;;;;;;;;;;22.40;45.50;;;;;;2376041;54;20081;-74
2022/04/27 14:35:07;;;;;;;;;;;22.40;45.50;;;;;;2476496;52;20702;-75
2022/04/27 14:37:33;;;;;;;;;;;22.30;45.40;;;;;;2377905;53;20113;-75
2022/04/27 14:39:59;;;;;;;;;;;22.30;45.70;;;;;;2376891;56;20086;-74
2022/04/27 14:42:31;;;;;;;;;;;22.20;45.60;;;;;;2539909;52;20125;-75
2022/04/27 14:44:57;;;;;;;;;;;22.30;45.80;;;;;;2364091;53;20580;-74
2022/04/27 14:47:24;;;;;;;;;;;22.40;46.10;;;;;;2446072;52;20101;-74
2022/04/27 14:49:50;;;;;;;;;;;22.40;45.90;;;;;;2375016;53;20208;-73